Time;durP1;ratioP1;P1;durP2;ratioP2;P2;SDS_P1;SDS_P2;PMS_P1;PMS_P2;Temp;Humidity;BMP_temperature;BMP_pressure;BME280_temperature;BME280_humidity;BME280_pressure;Samples;Min_cycle;Max_cycle;Signal;HPM_P1;HPM_P2
2021/12/24 00:00:45;;;;;;;42.97;23.20;;;;;;;;;;5091879;28;20207;-80
2021/12/24 00:03:13;;;;;;;47.57;24.50;;;;;;;;;;5058506;28;20306;-79
2021/12/24 00:05:41;;;;;;;47.30;24.60;;;;;;;;;;5058688;28;20286;-80
2021/12/24 00:08:09;;;;;;;79.17;34.07;;;;;;;;;;5058229;28;20212;-79
2021/12/24 00:10:39;;;;;;;77.90;31.47;;;;;;;;;;5041736;28;20591;-79
2021/12/24 00:13:13;;;;;;;46.50;24.10;;;;;;;;;;5041762;28;20556;-80
2021/12/24 00:18:26;;;;;;;68.07;30.20;;;;;;;;;;5058638;28;20234;-80
2021/12/24 00:21:59;;;;;;;56.07;26.17;;;;;;;;;;5043634;28;20192;-80
2021/12/24 00:37:12;;;;;;;60.40;29.67;;;;;;;;;;5059287;28;20238;-81
2021/12/24 00:39:49;;;;;;;56.20;26.90;;;;;;;;;;5091157;28;20207;-80
2021/12/24 00:42:16;;;;;;;46.13;24.83;;;;;;;;;;5042597;28;20191;-80
2021/12/24 00:44:44;;;;;;;52.73;28.73;;;;;;;;;;5039968;28;20713;-80
2021/12/24 00:47:12;;;;;;;52.00;29.10;;;;;;;;;;5057586;28;20215;-80
2021/12/24 00:49:40;;;;;;;57.80;29.67;;;;;;;;;;5041092;28;20207;-79
2021/12/24 00:57:37;;;;;;;49.17;27.77;;;;;;;;;;5059408;28;20196;-80
2021/12/24 01:00:18;;;;;;;49.00;27.83;;;;;;;;;;5057550;28;20540;-79
2021/12/24 01:02:48;;;;;;;89.20;38.27;;;;;;;;;;5041017;28;20278;-80
2021/12/24 01:05:18;;;;;;;48.97;26.47;;;;;;;;;;5040652;28;20207;-81
2021/12/24 01:07:45;;;;;;;53.67;27.07;;;;;;;;;;5057102;28;20658;-79
2021/12/24 01:10:17;;;;;;;48.80;26.60;;;;;;;;;;5056748;28;20333;-80
2021/12/24 01:12:44;;;;;;;71.33;37.73;;;;;;;;;;5040730;28;20630;-81
2021/12/24 01:15:13;;;;;;;50.33;26.40;;;;;;;;;;5040501;28;20211;-80
2021/12/24 01:20:30;;;;;;;57.43;29.60;;;;;;;;;;5073401;28;20203;-79
2021/12/24 01:25:36;;;;;;;65.40;34.20;;;;;;;;;;5073678;28;20282;-79
2021/12/24 01:38:59;;;;;;;42.03;26.10;;;;;;;;;;5075364;28;20192;-80
2021/12/24 01:44:08;;;;;;;52.83;23.93;;;;;;;;;;5075146;28;20269;-80
2021/12/24 01:46:36;;;;;;;44.60;22.10;;;;;;;;;;5056865;28;20207;-81
2021/12/24 01:49:04;;;;;;;44.00;22.90;;;;;;;;;;5073115;28;20294;-80
2021/12/24 01:51:32;;;;;;;44.30;22.00;;;;;;;;;;5056531;28;20747;-79
2021/12/24 01:54:01;;;;;;;37.17;20.77;;;;;;;;;;5056653;28;20762;-81
2021/12/24 01:56:28;;;;;;;45.27;22.90;;;;;;;;;;5072908;28;20212;-80
2021/12/24 01:58:56;;;;;;;51.97;24.50;;;;;;;;;;5073142;28;20218;-81
2021/12/24 02:01:27;;;;;;;50.10;24.40;;;;;;;;;;5089563;28;20265;-79
2021/12/24 02:03:55;;;;;;;74.17;31.93;;;;;;;;;;5072497;28;20634;-79
2021/12/24 02:06:22;;;;;;;51.80;25.67;;;;;;;;;;5073299;28;20289;-80
2021/12/24 02:08:50;;;;;;;48.63;25.50;;;;;;;;;;5073077;28;20699;-79
2021/12/24 02:11:18;;;;;;;62.60;29.57;;;;;;;;;;5072870;28;20708;-81
2021/12/24 02:13:46;;;;;;;50.93;22.17;;;;;;;;;;5072812;28;20212;-81
2021/12/24 02:29:29;;;;;;;66.47;25.13;;;;;;;;;;5076885;28;20691;-81
2021/12/24 02:31:57;;;;;;;67.77;28.87;;;;;;;;;;5029861;28;20262;-81
2021/12/24 02:34:25;;;;;;;79.80;28.23;;;;;;;;;;5056203;28;20207;-80
2021/12/24 02:36:52;;;;;;;62.87;27.27;;;;;;;;;;5072592;28;20261;-80
2021/12/24 02:39:20;;;;;;;43.07;22.07;;;;;;;;;;5040004;28;20713;-79
2021/12/24 02:41:48;;;;;;;61.10;25.67;;;;;;;;;;5072510;28;20211;-80
2021/12/24 02:44:15;;;;;;;44.60;20.80;;;;;;;;;;5056369;28;20696;-80
2021/12/24 02:53:56;;;;;;;38.07;20.07;;;;;;;;;;5057787;28;20595;-81
2021/12/24 02:55:09;;;;;;;41.27;21.67;;;;;;;;;;5057953;28;20274;-81
2021/12/24 02:57:38;;;;;;;35.50;20.00;;;;;;;;;;5039968;28;20195;-79
2021/12/24 03:00:14;;;;;;;41.77;20.43;;;;;;;;;;5106137;28;20203;-80
2021/12/24 03:02:46;;;;;;;38.13;20.70;;;;;;;;;;5056036;28;20630;-82
2021/12/24 03:05:17;;;;;;;42.43;22.13;;;;;;;;;;5039803;28;20265;-82
2021/12/24 03:07:46;;;;;;;46.87;24.83;;;;;;;;;;5090452;28;20199;-82
2021/12/24 03:10:18;;;;;;;51.37;28.57;;;;;;;;;;5076065;28;20568;-82
2021/12/24 03:12:49;;;;;;;60.93;26.40;;;;;;;;;;5092587;28;20230;-82
2021/12/24 03:15:17;;;;;;;40.20;22.33;;;;;;;;;;5092610;28;20200;-82
2021/12/24 03:17:50;;;;;;;96.27;32.87;;;;;;;;;;5042839;28;20554;-83
2021/12/24 03:20:19;;;;;;;57.37;24.80;;;;;;;;;;5060392;28;20330;-78
2021/12/24 03:25:15;;;;;;;37.73;20.03;;;;;;;;;;5075801;28;20241;-80
2021/12/24 03:27:44;;;;;;;36.13;20.13;;;;;;;;;;5092779;28;20207;-81
2021/12/24 03:30:13;;;;;;;35.27;19.43;;;;;;;;;;5092052;28;20226;-81
2021/12/24 03:32:41;;;;;;;35.50;20.03;;;;;;;;;;5092051;28;20285;-81
2021/12/24 03:35:09;;;;;;;70.07;25.43;;;;;;;;;;5075495;28;20210;-82
2021/12/24 03:37:36;;;;;;;53.80;25.53;;;;;;;;;;5092260;28;20211;-81
2021/12/24 03:40:06;;;;;;;58.70;24.53;;;;;;;;;;5092553;28;20264;-82
2021/12/24 03:42:37;;;;;;;47.70;21.63;;;;;;;;;;5075064;28;20214;-82
2021/12/24 03:45:23;;;;;;;46.10;22.10;;;;;;;;;;5075678;28;20309;-81
2021/12/24 03:47:59;;;;;;;57.87;25.40;;;;;;;;;;5058960;28;20195;-82
2021/12/24 03:50:41;;;;;;;35.77;19.77;;;;;;;;;;5060035;28;20195;-82
2021/12/24 03:55:50;;;;;;;41.33;20.00;;;;;;;;;;5060740;28;20202;-82
2021/12/24 03:58:19;;;;;;;38.90;19.47;;;;;;;;;;5075051;28;20226;-82
2021/12/24 04:01:00;;;;;;;41.77;19.20;;;;;;;;;;5060684;28;20278;-82
2021/12/24 04:03:28;;;;;;;36.17;20.07;;;;;;;;;;5091400;28;20207;-81
2021/12/24 04:06:01;;;;;;;35.17;19.10;;;;;;;;;;5059423;28;20642;-82
2021/12/24 04:08:32;;;;;;;36.23;17.07;;;;;;;;;;5058836;28;20537;-81
2021/12/24 04:11:00;;;;;;;44.60;22.57;;;;;;;;;;5074739;28;20211;-80
2021/12/24 04:13:31;;;;;;;65.47;27.10;;;;;;;;;;5091015;28;20685;-82
2021/12/24 04:15:59;;;;;;;43.20;20.93;;;;;;;;;;5074665;28;20214;-81
2021/12/24 04:26:23;;;;;;;34.00;18.90;;;;;;;;;;5060207;28;20273;-81
2021/12/24 04:28:55;;;;;;;37.23;19.53;;;;;;;;;;5042942;28;20257;-78
2021/12/24 04:31:29;;;;;;;35.20;19.00;;;;;;;;;;5074372;28;20264;-81
2021/12/24 04:34:24;;;;;;;35.40;19.17;;;;;;;;;;5061289;28;20212;-82
2021/12/24 05:03:42;;;;;;;31.77;18.53;;;;;;;;;;5075926;28;20236;-81
2021/12/24 05:06:30;;;;;;;36.83;18.00;;;;;;;;;;5090249;28;20663;-81
2021/12/24 05:09:05;;;;;;;37.77;20.70;;;;;;;;;;5077085;28;20206;-80
2021/12/24 05:11:33;;;;;;;49.33;21.93;;;;;;;;;;5041819;28;20222;-81
2021/12/24 05:14:01;;;;;;;41.60;19.83;;;;;;;;;;5107375;28;20257;-81
2021/12/24 05:17:03;;;;;;;39.40;18.73;;;;;;;;;;5059065;28;20195;-81
2021/12/24 05:22:47;;;;;;;73.23;37.87;;;;;;;;;;5090205;28;20210;-81
2021/12/24 05:25:18;;;;;;;724.77;272.87;;;;;;;;;;5057467;28;20195;-80
2021/12/24 05:27:45;;;;;;;645.60;235.73;;;;;;;;;;5073403;28;20213;-80
2021/12/24 05:30:13;;;;;;;750.37;337.33;;;;;;;;;;5089520;28;20218;-81
2021/12/24 05:32:41;;;;;;;459.13;196.90;;;;;;;;;;5073216;28;20227;-81
2021/12/24 05:35:08;;;;;;;625.47;287.67;;;;;;;;;;5056923;28;20207;-80
2021/12/24 05:37:36;;;;;;;452.43;193.70;;;;;;;;;;5040280;28;20536;-80
2021/12/24 05:40:05;;;;;;;255.70;86.47;;;;;;;;;;5040373;28;20216;-80
2021/12/24 05:42:33;;;;;;;287.27;87.00;;;;;;;;;;5089802;28;20218;-81
2021/12/24 05:45:06;;;;;;;130.80;43.70;;;;;;;;;;5040876;28;20207;-81
2021/12/24 05:48:10;;;;;;;69.47;29.50;;;;;;;;;;5073005;28;20246;-81
2021/12/24 05:50:38;;;;;;;55.17;27.47;;;;;;;;;;5073091;28;20515;-79
2021/12/24 05:53:18;;;;;;;70.57;33.10;;;;;;;;;;5073133;28;20227;-80
2021/12/24 05:55:57;;;;;;;69.97;33.67;;;;;;;;;;5043388;28;20264;-80
2021/12/24 05:58:25;;;;;;;55.77;26.50;;;;;;;;;;5089297;28;20203;-80
2021/12/24 06:00:55;;;;;;;58.97;26.53;;;;;;;;;;5072941;28;20207;-80
2021/12/24 06:03:32;;;;;;;54.97;28.90;;;;;;;;;;5090978;28;20195;-80
2021/12/24 06:06:00;;;;;;;65.77;35.23;;;;;;;;;;5075363;28;20211;-80
2021/12/24 06:08:29;;;;;;;123.03;40.87;;;;;;;;;;5073118;28;20290;-79
2021/12/24 06:10:57;;;;;;;113.07;41.60;;;;;;;;;;5057575;28;20214;-80
2021/12/24 06:13:29;;;;;;;57.70;27.97;;;;;;;;;;5075828;28;20226;-80
2021/12/24 06:15:57;;;;;;;66.13;28.03;;;;;;;;;;5072790;28;20301;-78
2021/12/24 06:18:27;;;;;;;65.73;28.07;;;;;;;;;;5085052;28;20227;-77
2021/12/24 06:20:57;;;;;;;59.23;28.27;;;;;;;;;;5054113;28;20238;-75
2021/12/24 06:23:27;;;;;;;77.13;35.70;;;;;;;;;;5073719;28;20261;-79
2021/12/24 06:25:58;;;;;;;69.90;32.07;;;;;;;;;;5057199;28;20230;-75
2021/12/24 06:28:28;;;;;;;54.57;25.23;;;;;;;;;;5073531;28;20260;-72
2021/12/24 06:30:55;;;;;;;55.57;26.77;;;;;;;;;;5091066;28;20246;-78
2021/12/24 06:33:23;;;;;;;55.10;26.43;;;;;;;;;;5056695;28;20317;-76
2021/12/24 06:35:54;;;;;;;50.67;23.83;;;;;;;;;;5092096;28;20234;-75
2021/12/24 06:38:21;;;;;;;39.57;21.70;;;;;;;;;;5092353;28;20230;-75
2021/12/24 06:40:49;;;;;;;38.43;20.53;;;;;;;;;;5058496;28;20235;-77
2021/12/24 06:43:17;;;;;;;41.03;22.67;;;;;;;;;;5076658;28;20722;-80
2021/12/24 06:45:47;;;;;;;76.77;34.73;;;;;;;;;;5095947;28;20238;-74
2021/12/24 06:48:14;;;;;;;70.23;31.40;;;;;;;;;;5094934;28;20270;-74
2021/12/24 06:50:42;;;;;;;57.57;26.53;;;;;;;;;;5094982;28;20634;-74
2021/12/24 06:53:09;;;;;;;49.77;25.17;;;;;;;;;;5095923;28;20242;-74
2021/12/24 06:55:37;;;;;;;69.60;31.87;;;;;;;;;;5093215;28;20288;-74
2021/12/24 06:58:07;;;;;;;44.20;22.80;;;;;;;;;;5091837;28;20231;-73
2021/12/24 07:00:35;;;;;;;41.27;23.20;;;;;;;;;;5087772;28;20284;-74
2021/12/24 07:03:06;;;;;;;39.50;21.73;;;;;;;;;;5090530;28;20317;-74
2021/12/24 07:05:34;;;;;;;41.07;23.30;;;;;;;;;;5091649;28;20261;-75
2021/12/24 07:08:02;;;;;;;42.60;23.87;;;;;;;;;;5091504;28;20725;-76
2021/12/24 07:10:30;;;;;;;48.20;24.00;;;;;;;;;;5089609;28;20234;-75
2021/12/24 07:12:57;;;;;;;45.20;24.47;;;;;;;;;;5093769;28;20317;-74
2021/12/24 07:15:24;;;;;;;38.83;23.30;;;;;;;;;;5093758;28;20231;-75
2021/12/24 07:17:52;;;;;;;56.63;26.00;;;;;;;;;;5076134;28;20266;-75
2021/12/24 07:20:21;;;;;;;53.63;26.73;;;;;;;;;;5075312;28;20242;-75
2021/12/24 07:22:47;;;;;;;43.83;24.80;;;;;;;;;;5075386;28;20227;-74
2021/12/24 07:25:15;;;;;;;45.27;23.60;;;;;;;;;;5075175;28;20235;-74
2021/12/24 07:27:42;;;;;;;45.00;24.43;;;;;;;;;;5075241;28;20227;-75
2021/12/24 07:30:12;;;;;;;68.90;31.13;;;;;;;;;;5074569;28;20241;-74
2021/12/24 07:32:41;;;;;;;146.93;48.40;;;;;;;;;;5093761;28;20288;-74
2021/12/24 07:35:09;;;;;;;116.17;44.83;;;;;;;;;;5082406;28;20497;-74
2021/12/24 07:37:37;;;;;;;65.57;30.63;;;;;;;;;;5089059;28;21012;-74
2021/12/24 07:40:05;;;;;;;77.70;31.20;;;;;;;;;;5075474;28;20293;-74
2021/12/24 07:42:33;;;;;;;55.23;26.70;;;;;;;;;;5075036;28;20231;-74
2021/12/24 07:45:01;;;;;;;44.80;24.77;;;;;;;;;;5075533;28;20310;-74
2021/12/24 07:47:32;;;;;;;72.47;40.63;;;;;;;;;;5075432;28;20317;-75
2021/12/24 07:50:02;;;;;;;59.10;29.90;;;;;;;;;;5082948;28;20234;-74
2021/12/24 07:52:30;;;;;;;59.20;27.93;;;;;;;;;;5090238;28;20267;-74
2021/12/24 07:54:58;;;;;;;58.90;28.97;;;;;;;;;;5091738;27;20697;-75
2021/12/24 07:57:45;;;;;;;58.07;28.90;;;;;;;;;;5091740;28;20272;-75
2021/12/24 08:00:13;;;;;;;55.77;25.93;;;;;;;;;;5090081;28;20246;-72
2021/12/24 08:02:41;;;;;;;55.13;27.83;;;;;;;;;;5092044;28;20353;-75
2021/12/24 08:05:10;;;;;;;49.03;27.57;;;;;;;;;;5091002;28;20227;-74
2021/12/24 08:07:37;;;;;;;57.37;30.00;;;;;;;;;;5093057;28;20288;-76
2021/12/24 08:10:04;;;;;;;48.80;27.23;;;;;;;;;;5091856;28;20231;-74
2021/12/24 08:12:31;;;;;;;47.40;24.83;;;;;;;;;;5093571;28;20246;-75
2021/12/24 08:14:59;;;;;;;78.47;33.57;;;;;;;;;;5091783;28;20235;-73
2021/12/24 08:17:26;;;;;;;56.70;31.23;;;;;;;;;;5088265;28;20242;-76
2021/12/24 08:19:53;;;;;;;43.50;26.37;;;;;;;;;;5090927;28;20226;-74
2021/12/24 08:22:20;;;;;;;65.50;29.93;;;;;;;;;;5082413;28;20627;-73
2021/12/24 08:24:47;;;;;;;52.37;26.77;;;;;;;;;;5074178;28;20596;-74
2021/12/24 08:27:14;;;;;;;56.10;27.43;;;;;;;;;;5088861;28;20231;-73
2021/12/24 08:29:42;;;;;;;45.03;25.53;;;;;;;;;;5073462;28;20227;-75
2021/12/24 08:32:09;;;;;;;46.13;25.77;;;;;;;;;;5075031;28;20317;-75
2021/12/24 08:34:38;;;;;;;46.53;25.37;;;;;;;;;;5074073;28;20239;-74
2021/12/24 08:37:05;;;;;;;45.93;25.37;;;;;;;;;;5078948;28;20287;-74
2021/12/24 08:39:33;;;;;;;59.83;29.77;;;;;;;;;;5090040;28;20231;-75
2021/12/24 08:42:01;;;;;;;57.23;30.23;;;;;;;;;;5087569;28;20246;-73
2021/12/24 08:44:30;;;;;;;49.50;26.50;;;;;;;;;;5083562;28;20257;-75
2021/12/24 08:47:01;;;;;;;49.57;26.40;;;;;;;;;;5092369;28;20287;-76
2021/12/24 08:49:30;;;;;;;59.30;29.17;;;;;;;;;;5088955;28;20352;-76
2021/12/24 08:51:58;;;;;;;49.77;28.13;;;;;;;;;;5073698;28;20239;-75
2021/12/24 08:54:25;;;;;;;57.47;29.83;;;;;;;;;;5073470;28;20243;-74
2021/12/24 08:56:54;;;;;;;54.30;28.70;;;;;;;;;;5073700;28;20231;-75
2021/12/24 08:59:23;;;;;;;76.30;32.03;;;;;;;;;;5071465;28;20231;-73
2021/12/24 09:01:51;;;;;;;78.37;41.67;;;;;;;;;;5077606;28;20257;-75
2021/12/24 09:04:20;;;;;;;53.90;28.60;;;;;;;;;;5091414;27;20265;-74
2021/12/24 09:06:48;;;;;;;61.67;30.73;;;;;;;;;;5091649;28;20253;-75
2021/12/24 09:09:16;;;;;;;48.23;26.43;;;;;;;;;;5092715;28;20230;-74
2021/12/24 09:11:44;;;;;;;57.60;28.57;;;;;;;;;;5074309;28;20638;-77
2021/12/24 09:14:17;;;;;;;60.77;27.87;;;;;;;;;;5072826;28;20296;-73
2021/12/24 09:16:48;;;;;;;51.50;27.33;;;;;;;;;;5073599;28;20243;-73
2021/12/24 09:19:20;;;;;;;47.00;26.73;;;;;;;;;;5073398;28;20265;-74
2021/12/24 09:21:47;;;;;;;46.20;25.60;;;;;;;;;;5072084;28;20227;-71
2021/12/24 09:24:17;;;;;;;68.97;31.57;;;;;;;;;;5073356;28;20235;-75
2021/12/24 09:26:45;;;;;;;50.37;27.40;;;;;;;;;;5073262;28;20292;-75
2021/12/24 09:29:13;;;;;;;61.13;28.80;;;;;;;;;;5072761;28;20704;-74
2021/12/24 09:31:40;;;;;;;49.63;27.13;;;;;;;;;;5077240;28;20261;-75
2021/12/24 09:34:07;;;;;;;64.90;31.07;;;;;;;;;;5073097;28;20243;-77
2021/12/24 09:36:37;;;;;;;61.63;29.00;;;;;;;;;;5072908;28;20314;-73
2021/12/24 09:39:05;;;;;;;47.03;25.87;;;;;;;;;;5080006;28;20259;-75
2021/12/24 09:41:33;;;;;;;50.47;26.97;;;;;;;;;;5072925;28;20322;-73
2021/12/24 09:44:02;;;;;;;67.90;29.40;;;;;;;;;;5071130;28;20258;-74
2021/12/24 09:46:30;;;;;;;52.27;27.27;;;;;;;;;;5072879;28;20634;-73
2021/12/24 09:48:58;;;;;;;56.17;28.57;;;;;;;;;;5072957;28;20243;-73
2021/12/24 09:51:26;;;;;;;44.10;26.00;;;;;;;;;;5072772;28;20235;-75
2021/12/24 09:53:55;;;;;;;47.80;26.10;;;;;;;;;;5072906;28;20247;-75
2021/12/24 09:56:22;;;;;;;45.60;26.13;;;;;;;;;;5072788;28;20325;-75
2021/12/24 09:58:50;;;;;;;48.93;26.87;;;;;;;;;;5081737;28;20237;-75
2021/12/24 10:01:30;;;;;;;54.13;30.17;;;;;;;;;;5081785;28;20227;-75
2021/12/24 10:04:04;;;;;;;52.27;29.37;;;;;;;;;;5086029;28;20317;-74
2021/12/24 10:06:31;;;;;;;49.90;30.10;;;;;;;;;;5072715;28;20234;-75
2021/12/24 10:09:19;;;;;;;58.43;31.07;;;;;;;;;;5072894;28;20265;-74
2021/12/24 10:11:55;;;;;;;52.23;28.13;;;;;;;;;;5072686;28;20234;-75
2021/12/24 10:14:29;;;;;;;50.27;27.73;;;;;;;;;;5072023;28;20756;-75
2021/12/24 10:16:56;;;;;;;49.47;29.10;;;;;;;;;;5087253;28;20280;-76
2021/12/24 10:19:24;;;;;;;51.67;30.23;;;;;;;;;;5083482;28;20273;-76
2021/12/24 10:22:00;;;;;;;71.73;34.10;;;;;;;;;;5078872;28;20289;-73
2021/12/24 10:24:30;;;;;;;65.07;32.20;;;;;;;;;;5089746;28;20238;-73
2021/12/24 10:26:58;;;;;;;72.47;36.30;;;;;;;;;;5074926;28;20235;-73
2021/12/24 10:29:34;;;;;;;56.70;31.57;;;;;;;;;;5078970;28;20300;-73
2021/12/24 10:32:13;;;;;;;67.13;34.87;;;;;;;;;;5083499;28;20267;-74
2021/12/24 10:34:41;;;;;;;66.03;36.67;;;;;;;;;;5075926;28;20257;-74
2021/12/24 10:37:26;;;;;;;59.47;33.43;;;;;;;;;;5078103;28;20235;-74
2021/12/24 10:39:55;;;;;;;61.17;36.23;;;;;;;;;;5080538;28;20568;-73
2021/12/24 10:42:35;;;;;;;61.63;34.47;;;;;;;;;;5075860;28;20235;-74
2021/12/24 10:45:16;;;;;;;63.80;36.70;;;;;;;;;;5074644;28;20240;-77
2021/12/24 10:47:43;;;;;;;61.80;35.73;;;;;;;;;;5076234;28;20235;-76
2021/12/24 10:55:24;;;;;;;70.33;39.50;;;;;;;;;;5094510;28;20250;-76
2021/12/24 10:57:53;;;;;;;70.03;39.13;;;;;;;;;;5094243;28;20724;-76
2021/12/24 11:00:45;;;;;;;71.13;40.10;;;;;;;;;;5093624;28;20321;-76
2021/12/24 11:03:17;;;;;;;73.13;39.47;;;;;;;;;;5094023;28;20239;-76
2021/12/24 11:06:02;;;;;;;67.07;39.80;;;;;;;;;;5094331;28;20234;-75
2021/12/24 11:08:29;;;;;;;76.03;43.17;;;;;;;;;;5087585;28;20838;-75
2021/12/24 11:10:59;;;;;;;78.80;42.17;;;;;;;;;;5090239;28;22018;-76
2021/12/24 11:13:35;;;;;;;77.50;42.73;;;;;;;;;;5093026;28;20273;-74
2021/12/24 11:16:03;;;;;;;72.90;40.43;;;;;;;;;;5085197;28;20241;-74
2021/12/24 11:18:34;;;;;;;69.70;40.87;;;;;;;;;;5089497;28;20774;-74
2021/12/24 11:21:12;;;;;;;70.63;42.20;;;;;;;;;;5092814;28;20226;-74
2021/12/24 11:23:41;;;;;;;70.33;41.70;;;;;;;;;;5090239;28;20364;-74
2021/12/24 11:26:09;;;;;;;73.40;42.97;;;;;;;;;;5092345;28;20321;-71
2021/12/24 11:28:37;;;;;;;78.37;43.03;;;;;;;;;;5088388;28;20570;-71
2021/12/24 11:31:06;;;;;;;91.77;46.03;;;;;;;;;;5092286;28;20230;-72
2021/12/24 11:33:35;;;;;;;69.20;41.77;;;;;;;;;;5092150;28;20237;-72
2021/12/24 11:36:10;;;;;;;66.77;41.03;;;;;;;;;;5092310;28;20258;-71
2021/12/24 11:38:40;;;;;;;76.13;44.53;;;;;;;;;;5088705;28;20238;-73
2021/12/24 11:41:13;;;;;;;75.00;41.33;;;;;;;;;;5089781;28;20246;-71
2021/12/24 11:43:47;;;;;;;77.43;42.37;;;;;;;;;;5088259;28;20280;-72
2021/12/24 11:46:16;;;;;;;80.20;42.17;;;;;;;;;;5092156;28;20233;-72
2021/12/24 11:48:47;;;;;;;73.37;43.40;;;;;;;;;;5092510;28;20231;-72
2021/12/24 11:51:40;;;;;;;79.93;44.23;;;;;;;;;;5093731;28;20235;-72
2021/12/24 11:54:09;;;;;;;78.97;44.07;;;;;;;;;;5091768;28;20254;-71
2021/12/24 11:56:53;;;;;;;82.00;44.93;;;;;;;;;;5092158;28;20239;-71
2021/12/24 11:59:40;;;;;;;124.60;51.30;;;;;;;;;;5090860;28;20297;-71
2021/12/24 12:02:08;;;;;;;79.23;45.07;;;;;;;;;;5091267;28;20299;-72
2021/12/24 12:04:36;;;;;;;88.53;49.50;;;;;;;;;;5089392;28;20238;-71
2021/12/24 12:07:16;;;;;;;82.33;43.63;;;;;;;;;;5090948;28;20243;-71
2021/12/24 12:09:45;;;;;;;79.57;44.53;;;;;;;;;;5090460;28;20237;-71
2021/12/24 12:12:16;;;;;;;81.80;44.20;;;;;;;;;;5091082;28;20576;-72
2021/12/24 12:14:44;;;;;;;77.87;44.27;;;;;;;;;;5092501;28;20295;-71
2021/12/24 12:17:23;;;;;;;79.67;43.33;;;;;;;;;;5092378;28;20705;-72
2021/12/24 12:19:59;;;;;;;79.10;43.67;;;;;;;;;;5090095;28;20226;-74
2021/12/24 12:25:10;;;;;;;85.77;47.03;;;;;;;;;;5092552;28;20230;-76
2021/12/24 12:27:38;;;;;;;108.70;52.73;;;;;;;;;;5090351;28;20230;-75
2021/12/24 12:30:36;;;;;;;84.37;47.20;;;;;;;;;;5092396;28;20231;-74
2021/12/24 12:33:09;;;;;;;89.07;49.63;;;;;;;;;;5090786;28;20259;-72
2021/12/24 12:35:41;;;;;;;88.70;48.30;;;;;;;;;;5089163;28;20313;-71
2021/12/24 12:38:22;;;;;;;87.17;47.77;;;;;;;;;;5091107;28;20602;-71
2021/12/24 12:40:49;;;;;;;85.53;46.37;;;;;;;;;;5088580;28;20237;-75
2021/12/24 12:43:18;;;;;;;82.47;44.17;;;;;;;;;;5071112;27;20253;-74
2021/12/24 12:45:48;;;;;;;82.60;45.80;;;;;;;;;;5087379;28;20269;-73
2021/12/24 12:48:23;;;;;;;92.13;46.80;;;;;;;;;;5089967;28;20233;-72
2021/12/24 12:50:56;;;;;;;86.50;46.10;;;;;;;;;;5089237;28;20728;-72
2021/12/24 12:53:27;;;;;;;89.93;49.50;;;;;;;;;;5087574;28;20239;-70
2021/12/24 12:56:10;;;;;;;103.17;49.23;;;;;;;;;;5085476;28;20283;-72
2021/12/24 12:58:38;;;;;;;77.50;43.73;;;;;;;;;;5089906;28;20230;-74
2021/12/24 13:01:18;;;;;;;84.00;46.37;;;;;;;;;;5057325;28;20223;-72
2021/12/24 13:03:57;;;;;;;89.87;46.63;;;;;;;;;;5089316;28;20284;-70
2021/12/24 13:06:41;;;;;;;80.57;43.80;;;;;;;;;;5090030;28;20242;-71
2021/12/24 13:09:18;;;;;;;78.77;42.23;;;;;;;;;;5087598;28;20262;-72
2021/12/24 13:11:49;;;;;;;79.17;41.40;;;;;;;;;;5090614;28;20709;-72
2021/12/24 13:14:18;;;;;;;82.23;43.77;;;;;;;;;;5088647;28;20314;-70
2021/12/24 13:16:52;;;;;;;81.13;42.00;;;;;;;;;;5089963;28;20230;-72
2021/12/24 13:24:38;;;;;;;113.33;50.17;;;;;;;;;;5088789;28;20765;-72
2021/12/24 13:27:06;;;;;;;90.50;44.30;;;;;;;;;;5089558;28;20231;-71
2021/12/24 13:29:33;;;;;;;86.87;46.10;;;;;;;;;;5090038;28;20672;-72
2021/12/24 13:32:01;;;;;;;83.67;44.83;;;;;;;;;;5086969;28;20731;-71
2021/12/24 13:34:28;;;;;;;92.53;46.47;;;;;;;;;;5072615;28;20317;-74
2021/12/24 13:37:01;;;;;;;98.80;55.55;;;;;;;;;;5089149;28;20444;-74
2021/12/24 13:39:29;;;;;;;93.10;49.67;;;;;;;;;;5088061;28;20724;-70
2021/12/24 13:42:14;;;;;;;85.83;47.03;;;;;;;;;;5090106;28;20229;-70
2021/12/24 13:44:41;;;;;;;89.57;45.73;;;;;;;;;;5089871;28;20269;-71
2021/12/24 13:47:25;;;;;;;82.80;44.50;;;;;;;;;;5085697;28;20303;-71
2021/12/24 13:55:27;;;;;;;88.13;45.80;;;;;;;;;;5089085;28;20321;-70
2021/12/24 13:58:08;;;;;;;95.23;48.10;;;;;;;;;;5072601;28;20704;-70
2021/12/24 14:00:39;;;;;;;104.97;50.33;;;;;;;;;;5087882;28;20708;-70
2021/12/24 14:03:09;;;;;;;117.10;54.33;;;;;;;;;;5090707;28;20231;-70
2021/12/24 14:05:44;;;;;;;102.03;49.73;;;;;;;;;;5087492;28;20264;-70
2021/12/24 14:08:17;;;;;;;109.67;50.63;;;;;;;;;;5086031;28;20325;-68
2021/12/24 14:10:46;;;;;;;110.20;51.63;;;;;;;;;;5090341;28;20230;-75
2021/12/24 14:13:38;;;;;;;105.13;49.57;;;;;;;;;;5082924;28;20235;-71
2021/12/24 14:16:29;;;;;;;103.53;51.53;;;;;;;;;;5087084;28;20253;-70
2021/12/24 14:19:13;;;;;;;105.33;53.50;;;;;;;;;;5072695;28;20238;-70
2021/12/24 14:21:45;;;;;;;99.40;50.80;;;;;;;;;;5072503;28;20315;-70
2021/12/24 14:24:21;;;;;;;94.63;48.30;;;;;;;;;;5075610;28;20250;-73
2021/12/24 14:27:06;;;;;;;119.03;53.83;;;;;;;;;;5086621;28;20231;-71
2021/12/24 14:29:36;;;;;;;91.87;46.93;;;;;;;;;;5088723;28;20230;-71
2021/12/24 14:32:14;;;;;;;100.63;48.80;;;;;;;;;;5090476;28;20246;-74
2021/12/24 14:34:50;;;;;;;93.50;47.83;;;;;;;;;;5090565;28;21082;-73
2021/12/24 14:37:34;;;;;;;95.17;47.63;;;;;;;;;;5091070;28;20256;-74
2021/12/24 14:40:07;;;;;;;94.10;48.23;;;;;;;;;;5090765;28;20589;-73
2021/12/24 14:42:51;;;;;;;112.70;53.87;;;;;;;;;;5089449;28;20230;-73
2021/12/24 14:45:18;;;;;;;89.97;46.20;;;;;;;;;;5083141;28;20263;-71
2021/12/24 14:47:59;;;;;;;88.40;44.77;;;;;;;;;;5077705;28;20247;-73
2021/12/24 14:50:26;;;;;;;81.20;43.73;;;;;;;;;;5088808;28;20720;-74
2021/12/24 14:53:16;;;;;;;84.33;45.13;;;;;;;;;;5088379;28;20317;-73
2021/12/24 14:55:51;;;;;;;83.00;43.37;;;;;;;;;;5089089;28;20238;-73
2021/12/24 14:58:37;;;;;;;85.83;47.37;;;;;;;;;;5088890;28;20234;-77
2021/12/24 15:01:15;;;;;;;92.23;46.23;;;;;;;;;;5088745;28;20253;-73
2021/12/24 15:03:53;;;;;;;90.43;47.60;;;;;;;;;;5090285;28;20238;-74
2021/12/24 15:06:30;;;;;;;87.80;46.47;;;;;;;;;;5093013;28;20237;-75
2021/12/24 15:09:21;;;;;;;88.67;47.73;;;;;;;;;;5091931;28;20231;-73
2021/12/24 15:11:49;;;;;;;103.47;53.90;;;;;;;;;;5075152;28;20239;-76
2021/12/24 15:14:18;;;;;;;116.60;58.73;;;;;;;;;;5074714;28;20243;-77
2021/12/24 15:16:47;;;;;;;110.70;56.60;;;;;;;;;;5086140;28;20233;-78
2021/12/24 15:19:16;;;;;;;117.43;57.73;;;;;;;;;;5093953;28;20229;-80
2021/12/24 15:21:46;;;;;;;111.43;54.63;;;;;;;;;;5103896;28;20253;-76
2021/12/24 15:24:15;;;;;;;113.33;56.00;;;;;;;;;;5116349;27;20238;-78
2021/12/24 15:26:45;;;;;;;110.83;54.57;;;;;;;;;;5114908;28;20329;-77
2021/12/24 15:29:13;;;;;;;114.70;54.07;;;;;;;;;;5117339;28;20303;-76
2021/12/24 15:31:41;;;;;;;106.10;54.57;;;;;;;;;;5115778;28;20210;-76
2021/12/24 15:34:09;;;;;;;103.80;52.47;;;;;;;;;;5117256;28;20238;-77
2021/12/24 15:36:37;;;;;;;101.07;50.80;;;;;;;;;;5116978;28;20602;-77
2021/12/24 15:39:05;;;;;;;96.07;50.70;;;;;;;;;;5117178;28;20267;-77
2021/12/24 15:41:33;;;;;;;94.00;50.27;;;;;;;;;;5117086;28;20210;-77
2021/12/24 15:44:01;;;;;;;98.77;49.43;;;;;;;;;;5116852;28;20242;-76
2021/12/24 15:46:28;;;;;;;102.13;50.70;;;;;;;;;;5115961;28;20206;-76
2021/12/24 15:48:55;;;;;;;105.57;51.40;;;;;;;;;;5116710;28;20604;-77
2021/12/24 15:51:23;;;;;;;113.13;54.80;;;;;;;;;;5116947;28;20225;-76
2021/12/24 15:53:50;;;;;;;112.07;54.13;;;;;;;;;;5117074;28;20209;-77
2021/12/24 15:56:18;;;;;;;109.57;53.73;;;;;;;;;;5116578;28;20703;-78
2021/12/24 15:58:46;;;;;;;106.77;53.40;;;;;;;;;;5115663;28;20225;-76
2021/12/24 16:01:13;;;;;;;117.10;55.93;;;;;;;;;;5116848;28;20214;-76
2021/12/24 16:03:41;;;;;;;124.70;56.57;;;;;;;;;;5116347;28;20563;-77
2021/12/24 16:06:08;;;;;;;105.37;51.43;;;;;;;;;;5116296;28;20217;-77
2021/12/24 16:08:35;;;;;;;113.43;55.57;;;;;;;;;;5116379;28;20236;-77
2021/12/24 16:11:03;;;;;;;115.10;53.23;;;;;;;;;;5116581;28;20245;-77
2021/12/24 16:13:32;;;;;;;120.27;51.83;;;;;;;;;;5116518;28;20206;-78
2021/12/24 16:16:00;;;;;;;104.40;51.80;;;;;;;;;;5115707;28;20668;-77
2021/12/24 16:18:28;;;;;;;108.53;52.20;;;;;;;;;;5116411;28;20206;-78
2021/12/24 16:20:55;;;;;;;103.23;51.00;;;;;;;;;;5116212;28;20213;-73
2021/12/24 16:23:24;;;;;;;109.97;51.80;;;;;;;;;;5116367;28;20210;-78
2021/12/24 16:25:52;;;;;;;102.70;52.00;;;;;;;;;;5115208;28;20202;-77
2021/12/24 16:28:19;;;;;;;99.93;50.73;;;;;;;;;;5116170;28;20214;-77
2021/12/24 16:30:46;;;;;;;106.00;49.50;;;;;;;;;;5116090;28;20214;-77
2021/12/24 16:33:14;;;;;;;96.10;49.43;;;;;;;;;;5114696;28;20665;-77
2021/12/24 16:35:41;;;;;;;99.93;48.03;;;;;;;;;;5116077;28;20237;-77
2021/12/24 16:38:08;;;;;;;84.90;43.93;;;;;;;;;;5116067;28;20548;-78